sensor_id;sensor_type;location;lat;lon;timestamp;pressure;altitude;pressure_sealevel;temperature;humidity
59877;BME280;45749;51.140;17.184;2023-02-11T00:00:38;101679.88;;;0.14;83.57
59877;BME280;45749;51.140;17.184;2023-02-11T00:03:03;101673.81;;;0.14;83.78
59877;BME280;45749;51.140;17.184;2023-02-11T00:05:29;101672.06;;;0.13;83.92
59877;BME280;45749;51.140;17.184;2023-02-11T00:07:54;101665.16;;;0.15;84.03
59877;BME280;45749;51.140;17.184;2023-02-11T00:10:19;101664.28;;;0.14;84.37
59877;BME280;45749;51.140;17.184;2023-02-11T00:12:44;101659.94;;;0.15;84.17
59877;BME280;45749;51.140;17.184;2023-02-11T00:15:10;101658.22;;;0.17;84.12
59877;BME280;45749;51.140;17.184;2023-02-11T00:17:35;101649.53;;;0.18;84.47
59877;BME280;45749;51.140;17.184;2023-02-11T00:20:00;101647.81;;;0.20;84.30
59877;BME280;45749;51.140;17.184;2023-02-11T00:22:26;101646.03;;;0.22;84.13
59877;BME280;45749;51.140;17.184;2023-02-11T00:24:51;101645.16;;;0.25;84.08
59877;BME280;45749;51.140;17.184;2023-02-11T00:27:16;101644.28;;;0.26;84.40
59877;BME280;45749;51.140;17.184;2023-02-11T00:29:41;101644.28;;;0.26;84.13
59877;BME280;45749;51.140;17.184;2023-02-11T00:32:07;101645.13;;;0.26;84.43
59877;BME280;45749;51.140;17.184;2023-02-11T00:34:33;101636.47;;;0.29;84.10
59877;BME280;45749;51.140;17.184;2023-02-11T00:36:59;101633.88;;;0.30;84.15
59877;BME280;45749;51.140;17.184;2023-02-11T00:39:24;101644.25;;;0.30;84.37
59877;BME280;45749;51.140;17.184;2023-02-11T00:41:49;101640.78;;;0.31;84.29
59877;BME280;45749;51.140;17.184;2023-02-11T00:44:15;101640.78;;;0.31;84.20
59877;BME280;45749;51.140;17.184;2023-02-11T00:46:40;101634.69;;;0.32;84.40
59877;BME280;45749;51.140;17.184;2023-02-11T00:49:06;101635.56;;;0.31;84.42
59877;BME280;45749;51.140;17.184;2023-02-11T00:51:31;101635.56;;;0.33;84.45
59877;BME280;45749;51.140;17.184;2023-02-11T00:53:57;101635.56;;;0.34;84.60
59877;BME280;45749;51.140;17.184;2023-02-11T00:56:22;101626.03;;;0.35;84.28
59877;BME280;45749;51.140;17.184;2023-02-11T00:58:47;101620.81;;;0.35;84.62
59877;BME280;45749;51.140;17.184;2023-02-11T01:01:12;101620.81;;;0.35;84.56
59877;BME280;45749;51.140;17.184;2023-02-11T01:03:38;101610.44;;;0.36;84.49
59877;BME280;45749;51.140;17.184;2023-02-11T01:06:04;101606.97;;;0.36;84.25
59877;BME280;45749;51.140;17.184;2023-02-11T01:08:30;101604.38;;;0.37;84.52
59877;BME280;45749;51.140;17.184;2023-02-11T01:10:56;101603.50;;;0.37;84.31
59877;BME280;45749;51.140;17.184;2023-02-11T01:13:22;101603.50;;;0.35;84.30
59877;BME280;45749;51.140;17.184;2023-02-11T01:15:47;101603.50;;;0.35;84.58
59877;BME280;45749;51.140;17.184;2023-02-11T01:18:12;101587.06;;;0.35;84.23
59877;BME280;45749;51.140;17.184;2023-02-11T01:20:38;101581.03;;;0.34;84.38
59877;BME280;45749;51.140;17.184;2023-02-11T01:23:03;101584.47;;;0.35;84.27
59877;BME280;45749;51.140;17.184;2023-02-11T01:25:28;101577.56;;;0.34;84.50
59877;BME280;45749;51.140;17.184;2023-02-11T01:27:53;101579.31;;;0.32;84.38
59877;BME280;45749;51.140;17.184;2023-02-11T01:30:19;101569.81;;;0.31;84.06
59877;BME280;45749;51.140;17.184;2023-02-11T01:32:44;101566.34;;;0.29;84.23
59877;BME280;45749;51.140;17.184;2023-02-11T01:35:09;101566.41;;;0.24;84.46
59877;BME280;45749;51.140;17.184;2023-02-11T01:37:35;101567.28;;;0.23;84.32
59877;BME280;45749;51.140;17.184;2023-02-11T01:40:01;101558.66;;;0.19;84.64
59877;BME280;45749;51.140;17.184;2023-02-11T01:42:26;101553.47;;;0.19;84.45
59877;BME280;45749;51.140;17.184;2023-02-11T01:44:52;101543.13;;;0.18;84.54
59877;BME280;45749;51.140;17.184;2023-02-11T01:47:18;101544.00;;;0.17;84.51
59877;BME280;45749;51.140;17.184;2023-02-11T01:49:45;101530.16;;;0.15;84.67
59877;BME280;45749;51.140;17.184;2023-02-11T01:52:14;101523.25;;;0.14;84.72
59877;BME280;45749;51.140;17.184;2023-02-11T01:54:43;101524.13;;;0.13;84.98
59877;BME280;45749;51.140;17.184;2023-02-11T01:57:30;101509.44;;;0.12;85.13
59877;BME280;45749;51.140;17.184;2023-02-11T02:00:07;101504.25;;;0.09;85.10
59877;BME280;45749;51.140;17.184;2023-02-11T02:05:19;101522.47;;;0.07;85.38
59877;BME280;45749;51.140;17.184;2023-02-11T02:07:55;101518.13;;;0.08;85.26
59877;BME280;45749;51.140;17.184;2023-02-11T02:10:23;101502.56;;;0.08;85.42
59877;BME280;45749;51.140;17.184;2023-02-11T02:12:49;101499.09;;;0.06;85.65
59877;BME280;45749;51.140;17.184;2023-02-11T02:17:45;101495.69;;;0.04;85.25
59877;BME280;45749;51.140;17.184;2023-02-11T02:23:01;101483.53;;;0.06;85.66
59877;BME280;45749;51.140;17.184;2023-02-11T02:33:36;101470.59;;;0.04;86.02
59877;BME280;45749;51.140;17.184;2023-02-11T02:36:07;101467.09;;;0.07;85.98
59877;BME280;45749;51.140;17.184;2023-02-11T02:41:22;101448.03;;;0.09;85.82
59877;BME280;45749;51.140;17.184;2023-02-11T02:43:49;101447.16;;;0.09;86.07
59877;BME280;45749;51.140;17.184;2023-02-11T02:46:19;101439.38;;;0.10;86.07
59877;BME280;45749;51.140;17.184;2023-02-11T02:48:45;101441.94;;;0.12;86.01
59877;BME280;45749;51.140;17.184;2023-02-11T02:53:57;101422.03;;;0.14;86.16
59877;BME280;45749;51.140;17.184;2023-02-11T02:58:56;101421.09;;;0.16;85.96
59877;BME280;45749;51.140;17.184;2023-02-11T03:11:55;101389.88;;;0.22;86.03
59877;BME280;45749;51.140;17.184;2023-02-11T03:14:21;101394.22;;;0.23;85.69
59877;BME280;45749;51.140;17.184;2023-02-11T03:16:48;101404.56;;;0.25;85.95
59877;BME280;45749;51.140;17.184;2023-02-11T03:19:16;101396.78;;;0.27;85.68
59877;BME280;45749;51.140;17.184;2023-02-11T03:21:43;101398.47;;;0.28;85.67
59877;BME280;45749;51.140;17.184;2023-02-11T03:24:15;101422.69;;;0.30;85.64
59877;BME280;45749;51.140;17.184;2023-02-11T03:26:45;101412.28;;;0.31;85.60
59877;BME280;45749;51.140;17.184;2023-02-11T03:29:58;101420.94;;;0.33;85.54
59877;BME280;45749;51.140;17.184;2023-02-11T03:32:06;101411.34;;;0.35;85.42
59877;BME280;45749;51.140;17.184;2023-02-11T03:34:40;101403.56;;;0.35;85.67
59877;BME280;45749;51.140;17.184;2023-02-11T03:37:17;101404.38;;;0.39;85.56
59877;BME280;45749;51.140;17.184;2023-02-11T03:39:51;101413.88;;;0.41;85.25
59877;BME280;45749;51.140;17.184;2023-02-11T03:42:18;101413.84;;;0.44;85.38
59877;BME280;45749;51.140;17.184;2023-02-11T03:44:52;101421.56;;;0.49;85.43
59877;BME280;45749;51.140;17.184;2023-02-11T03:47:21;101413.72;;;0.52;85.07
59877;BME280;45749;51.140;17.184;2023-02-11T03:49:49;101404.16;;;0.56;85.14
59877;BME280;45749;51.140;17.184;2023-02-11T03:52:16;101401.47;;;0.62;84.87
59877;BME280;45749;51.140;17.184;2023-02-11T03:54:42;101406.63;;;0.66;84.90
59877;BME280;45749;51.140;17.184;2023-02-11T03:57:08;101395.28;;;0.69;84.90
59877;BME280;45749;51.140;17.184;2023-02-11T03:59:48;101395.28;;;0.70;84.56
59877;BME280;45749;51.140;17.184;2023-02-11T04:02:14;101388.31;;;0.74;84.61
59877;BME280;45749;51.140;17.184;2023-02-11T04:04:39;101380.47;;;0.76;84.37
59877;BME280;45749;51.140;17.184;2023-02-11T04:07:04;101372.66;;;0.77;84.23
59877;BME280;45749;51.140;17.184;2023-02-11T04:09:29;101365.72;;;0.79;84.36
59877;BME280;45749;51.140;17.184;2023-02-11T04:11:55;101371.72;;;0.81;84.21
59877;BME280;45749;51.140;17.184;2023-02-11T04:14:20;101368.25;;;0.82;83.97
59877;BME280;45749;51.140;17.184;2023-02-11T04:16:45;101358.69;;;0.84;83.98
59877;BME280;45749;51.140;17.184;2023-02-11T04:19:10;101354.34;;;0.86;83.98
59877;BME280;45749;51.140;17.184;2023-02-11T04:21:36;101349.09;;;0.88;83.86
59877;BME280;45749;51.140;17.184;2023-02-11T04:24:01;101342.16;;;0.88;83.63
59877;BME280;45749;51.140;17.184;2023-02-11T04:26:26;101346.50;;;0.89;83.82
59877;BME280;45749;51.140;17.184;2023-02-11T04:28:51;101330.88;;;0.91;83.80
59877;BME280;45749;51.140;17.184;2023-02-11T04:31:17;101334.31;;;0.93;83.81
59877;BME280;45749;51.140;17.184;2023-02-11T04:33:42;101323.91;;;0.93;83.69
59877;BME280;45749;51.140;17.184;2023-02-11T04:36:07;101315.22;;;0.94;83.55
59877;BME280;45749;51.140;17.184;2023-02-11T04:38:33;101322.16;;;0.93;83.62
59877;BME280;45749;51.140;17.184;2023-02-11T04:40:58;101324.72;;;0.95;83.42
59877;BME280;45749;51.140;17.184;2023-02-11T04:43:24;101334.25;;;0.94;83.42
59877;BME280;45749;51.140;17.184;2023-02-11T04:45:49;101334.22;;;0.98;83.71
59877;BME280;45749;51.140;17.184;2023-02-11T04:48:15;101333.31;;;0.99;83.40
59877;BME280;45749;51.140;17.184;2023-02-11T04:50:40;101337.66;;;0.98;83.32
59877;BME280;45749;51.140;17.184;2023-02-11T04:53:05;101330.72;;;0.99;83.45
59877;BME280;45749;51.140;17.184;2023-02-11T04:55:31;101329.00;;;0.99;83.18
59877;BME280;45749;51.140;17.184;2023-02-11T04:57:56;101328.13;;;0.99;83.17
59877;BME280;45749;51.140;17.184;2023-02-11T05:00:22;101324.66;;;1.00;83.22
59877;BME280;45749;51.140;17.184;2023-02-11T05:02:47;101319.47;;;1.00;83.25
59877;BME280;45749;51.140;17.184;2023-02-11T05:05:12;101305.63;;;0.99;83.17
59877;BME280;45749;51.140;17.184;2023-02-11T05:07:38;101296.94;;;0.99;83.26
59877;BME280;45749;51.140;17.184;2023-02-11T05:10:03;101299.56;;;0.97;83.23
59877;BME280;45749;51.140;17.184;2023-02-11T05:12:32;101290.03;;;0.98;83.09
59877;BME280;45749;51.140;17.184;2023-02-11T05:14:57;101289.13;;;0.99;83.09
59877;BME280;45749;51.140;17.184;2023-02-11T05:17:22;101278.75;;;0.99;82.86
59877;BME280;45749;51.140;17.184;2023-02-11T05:19:48;101286.53;;;0.99;82.95
59877;BME280;45749;51.140;17.184;2023-02-11T05:22:13;101282.22;;;0.99;82.87
59877;BME280;45749;51.140;17.184;2023-02-11T05:24:38;101276.16;;;0.99;82.76
59877;BME280;45749;51.140;17.184;2023-02-11T05:27:04;101264.88;;;1.00;82.77
59877;BME280;45749;51.140;17.184;2023-02-11T05:29:29;101265.75;;;0.99;82.91
59877;BME280;45749;51.140;17.184;2023-02-11T05:31:54;101261.44;;;0.99;82.90
59877;BME280;45749;51.140;17.184;2023-02-11T05:34:19;101270.88;;;1.02;82.80
59877;BME280;45749;51.140;17.184;2023-02-11T05:36:45;101276.97;;;1.02;82.75
59877;BME280;45749;51.140;17.184;2023-02-11T05:39:10;101272.63;;;1.03;82.93
59877;BME280;45749;51.140;17.184;2023-02-11T05:41:35;101270.84;;;1.05;82.64
59877;BME280;45749;51.140;17.184;2023-02-11T05:44:02;101265.66;;;1.05;82.53
59877;BME280;45749;51.140;17.184;2023-02-11T05:46:27;101277.72;;;1.07;82.58
59877;BME280;45749;51.140;17.184;2023-02-11T05:48:52;101277.72;;;1.09;82.42
59877;BME280;45749;51.140;17.184;2023-02-11T05:51:17;101270.72;;;1.11;82.51
59877;BME280;45749;51.140;17.184;2023-02-11T05:53:43;101268.97;;;1.13;82.25
59877;BME280;45749;51.140;17.184;2023-02-11T05:56:08;101274.16;;;1.13;82.25
59877;BME280;45749;51.140;17.184;2023-02-11T05:58:34;101271.53;;;1.14;82.55
59877;BME280;45749;51.140;17.184;2023-02-11T06:00:59;101263.72;;;1.16;82.17
59877;BME280;45749;51.140;17.184;2023-02-11T06:03:25;101274.06;;;1.17;82.29
59877;BME280;45749;51.140;17.184;2023-02-11T06:05:50;101275.75;;;1.20;82.35
59877;BME280;45749;51.140;17.184;2023-02-11T06:08:15;101277.47;;;1.21;82.08
59877;BME280;45749;51.140;17.184;2023-02-11T06:10:43;101267.94;;;1.22;82.15
59877;BME280;45749;51.140;17.184;2023-02-11T06:13:08;101268.81;;;1.22;82.18
59877;BME280;45749;51.140;17.184;2023-02-11T06:15:34;101263.56;;;1.24;81.86
59877;BME280;45749;51.140;17.184;2023-02-11T06:17:59;101262.72;;;1.23;81.91
59877;BME280;45749;51.140;17.184;2023-02-11T06:20:24;101270.47;;;1.25;82.06
59877;BME280;45749;51.140;17.184;2023-02-11T06:22:50;101266.97;;;1.27;81.96
59877;BME280;45749;51.140;17.184;2023-02-11T06:25:16;101263.44;;;1.30;81.83
59877;BME280;45749;51.140;17.184;2023-02-11T06:27:42;101262.56;;;1.31;82.10
59877;BME280;45749;51.140;17.184;2023-02-11T06:30:07;101251.28;;;1.32;82.08
59877;BME280;45749;51.140;17.184;2023-02-11T06:32:33;101249.50;;;1.34;82.06
59877;BME280;45749;51.140;17.184;2023-02-11T06:34:58;101249.44;;;1.37;82.04
59877;BME280;45749;51.140;17.184;2023-02-11T06:37:23;101248.53;;;1.38;81.90
59877;BME280;45749;51.140;17.184;2023-02-11T06:39:48;101243.31;;;1.39;82.01
59877;BME280;45749;51.140;17.184;2023-02-11T06:42:14;101244.16;;;1.42;82.11
59877;BME280;45749;51.140;17.184;2023-02-11T06:44:39;101252.78;;;1.44;81.98
59877;BME280;45749;51.140;17.184;2023-02-11T06:47:04;101253.59;;;1.46;82.03
59877;BME280;45749;51.140;17.184;2023-02-11T06:49:29;101250.09;;;1.48;82.32
59877;BME280;45749;51.140;17.184;2023-02-11T06:51:55;101243.94;;;1.51;82.14
59877;BME280;45749;51.140;17.184;2023-02-11T06:54:20;101247.38;;;1.53;82.39
59877;BME280;45749;51.140;17.184;2023-02-11T06:56:45;101251.69;;;1.55;82.23
59877;BME280;45749;51.140;17.184;2023-02-11T06:59:13;101249.03;;;1.57;82.51
59877;BME280;45749;51.140;17.184;2023-02-11T07:01:39;101259.38;;;1.60;82.22
59877;BME280;45749;51.140;17.184;2023-02-11T07:04:04;101249.81;;;1.62;82.37
59877;BME280;45749;51.140;17.184;2023-02-11T07:06:30;101242.81;;;1.64;82.30
59877;BME280;45749;51.140;17.184;2023-02-11T07:08:56;101243.63;;;1.66;82.40
59877;BME280;45749;51.140;17.184;2023-02-11T07:11:22;101243.56;;;1.69;82.56
59877;BME280;45749;51.140;17.184;2023-02-11T07:13:51;101233.09;;;1.72;82.41
59877;BME280;45749;51.140;17.184;2023-02-11T07:16:17;101228.69;;;1.74;82.71
59877;BME280;45749;51.140;17.184;2023-02-11T07:18:43;101215.63;;;1.77;82.42
59877;BME280;45749;51.140;17.184;2023-02-11T07:21:09;101219.91;;;1.80;82.37
59877;BME280;45749;51.140;17.184;2023-02-11T07:23:35;101224.19;;;1.82;82.34
59877;BME280;45749;51.140;17.184;2023-02-11T07:26:01;101243.22;;;1.86;82.65
59877;BME280;45749;51.140;17.184;2023-02-11T07:28:27;101231.88;;;1.88;82.51
59877;BME280;45749;51.140;17.184;2023-02-11T07:30:52;101246.53;;;1.93;82.57
59877;BME280;45749;51.140;17.184;2023-02-11T07:33:17;101240.41;;;1.95;82.43
59877;BME280;45749;51.140;17.184;2023-02-11T07:35:42;101227.34;;;1.97;82.34
59877;BME280;45749;51.140;17.184;2023-02-11T07:38:08;101231.63;;;1.99;82.35
59877;BME280;45749;51.140;17.184;2023-02-11T07:40:33;101237.63;;;2.03;82.47
59877;BME280;45749;51.140;17.184;2023-02-11T07:42:59;101229.75;;;2.06;82.62
59877;BME280;45749;51.140;17.184;2023-02-11T07:45:24;101222.72;;;2.09;82.66
59877;BME280;45749;51.140;17.184;2023-02-11T07:47:49;101227.00;;;2.12;82.97
59877;BME280;45749;51.140;17.184;2023-02-11T07:50:15;101228.69;;;2.15;82.56
59877;BME280;45749;51.140;17.184;2023-02-11T07:52:41;101232.94;;;2.17;82.62
59877;BME280;45749;51.140;17.184;2023-02-11T07:55:06;101231.16;;;2.19;82.76
59877;BME280;45749;51.140;17.184;2023-02-11T07:57:32;101228.50;;;2.22;82.77
59877;BME280;45749;51.140;17.184;2023-02-11T07:59:57;101228.47;;;2.24;82.71
59877;BME280;45749;51.140;17.184;2023-02-11T08:02:22;101235.34;;;2.26;82.78
59877;BME280;45749;51.140;17.184;2023-02-11T08:04:47;101236.13;;;2.30;83.15
59877;BME280;45749;51.140;17.184;2023-02-11T08:07:14;101239.50;;;2.33;83.09
59877;BME280;45749;51.140;17.184;2023-02-11T08:09:39;101240.31;;;2.35;83.31
59877;BME280;45749;51.140;17.184;2023-02-11T08:12:04;101240.25;;;2.39;83.07
59877;BME280;45749;51.140;17.184;2023-02-11T08:14:30;101241.09;;;2.41;83.29
59877;BME280;45749;51.140;17.184;2023-02-11T08:16:56;101245.31;;;2.45;83.74
59877;BME280;45749;51.140;17.184;2023-02-11T08:19:22;101242.66;;;2.46;83.96
59877;BME280;45749;51.140;17.184;2023-02-11T08:21:47;101227.00;;;2.48;84.04
59877;BME280;45749;51.140;17.184;2023-02-11T08:24:12;101226.97;;;2.49;84.16
59877;BME280;45749;51.140;17.184;2023-02-11T08:26:37;101239.06;;;2.52;84.41
59877;BME280;45749;51.140;17.184;2023-02-11T08:29:05;101235.56;;;2.53;84.60
59877;BME280;45749;51.140;17.184;2023-02-11T08:31:32;101247.72;;;2.54;84.56
59877;BME280;45749;51.140;17.184;2023-02-11T08:33:57;101240.69;;;2.56;84.53
59877;BME280;45749;51.140;17.184;2023-02-11T08:36:24;101238.00;;;2.59;84.89
59877;BME280;45749;51.140;17.184;2023-02-11T08:38:50;101228.41;;;2.61;84.75
59877;BME280;45749;51.140;17.184;2023-02-11T08:41:15;101229.13;;;2.66;84.89
59877;BME280;45749;51.140;17.184;2023-02-11T08:43:43;101232.56;;;2.68;84.90
59877;BME280;45749;51.140;17.184;2023-02-11T08:46:13;101220.31;;;2.72;84.64
59877;BME280;45749;51.140;17.184;2023-02-11T08:48:39;101226.31;;;2.75;84.99
59877;BME280;45749;51.140;17.184;2023-02-11T08:51:05;101208.88;;;2.77;85.05
59877;BME280;45749;51.140;17.184;2023-02-11T08:53:31;101219.19;;;2.82;85.49
59877;BME280;45749;51.140;17.184;2023-02-11T08:55:56;101227.78;;;2.86;85.56
59877;BME280;45749;51.140;17.184;2023-02-11T08:58:22;101221.59;;;2.90;85.63
59877;BME280;45749;51.140;17.184;2023-02-11T09:00:48;101218.03;;;2.92;86.06
59877;BME280;45749;51.140;17.184;2023-02-11T09:03:14;101219.72;;;2.95;86.06
59877;BME280;45749;51.140;17.184;2023-02-11T09:05:43;101210.06;;;2.98;86.18
59877;BME280;45749;51.140;17.184;2023-02-11T09:08:09;101197.78;;;3.02;86.41
59877;BME280;45749;51.140;17.184;2023-02-11T09:10:35;101191.63;;;3.06;87.22
59877;BME280;45749;51.140;17.184;2023-02-11T09:13:00;101196.69;;;3.11;87.78
59877;BME280;45749;51.140;17.184;2023-02-11T09:15:25;101186.13;;;3.15;87.35
59877;BME280;45749;51.140;17.184;2023-02-11T09:17:50;101185.09;;;3.21;88.59
59877;BME280;45749;51.140;17.184;2023-02-11T09:20:16;101182.25;;;3.28;88.95
59877;BME280;45749;51.140;17.184;2023-02-11T09:22:46;101173.41;;;3.34;89.03
59877;BME280;45749;51.140;17.184;2023-02-11T09:25:11;101168.94;;;3.39;88.96
59877;BME280;45749;51.140;17.184;2023-02-11T09:27:36;101173.09;;;3.45;89.44
59877;BME280;45749;51.140;17.184;2023-02-11T09:30:02;101171.22;;;3.50;89.43
59877;BME280;45749;51.140;17.184;2023-02-11T09:32:27;101164.03;;;3.57;89.51
59877;BME280;45749;51.140;17.184;2023-02-11T09:34:53;101156.88;;;3.63;89.64
59877;BME280;45749;51.140;17.184;2023-02-11T09:37:18;101161.94;;;3.68;89.70
59877;BME280;45749;51.140;17.184;2023-02-11T09:39:43;101158.31;;;3.73;90.34
59877;BME280;45749;51.140;17.184;2023-02-11T09:44:38;101151.03;;;3.83;91.39
59877;BME280;45749;51.140;17.184;2023-02-11T09:47:22;101144.78;;;3.89;90.60
59877;BME280;45749;51.140;17.184;2023-02-11T09:49:50;101153.28;;;3.95;90.62
59877;BME280;45749;51.140;17.184;2023-02-11T09:54:55;101139.88;;;4.06;90.02
59877;BME280;45749;51.140;17.184;2023-02-11T09:57:21;101140.56;;;4.11;90.56
59877;BME280;45749;51.140;17.184;2023-02-11T09:59:48;101141.25;;;4.16;90.14
59877;BME280;45749;51.140;17.184;2023-02-11T10:02:19;101137.63;;;4.20;89.97
59877;BME280;45749;51.140;17.184;2023-02-11T10:22:48;101112.28;;;4.49;90.14
59877;BME280;45749;51.140;17.184;2023-02-11T10:25:24;101109.56;;;4.52;90.50
59877;BME280;45749;51.140;17.184;2023-02-11T10:27:50;101096.44;;;4.54;90.45
59877;BME280;45749;51.140;17.184;2023-02-11T10:35:12;101104.81;;;4.63;90.41
59877;BME280;45749;51.140;17.184;2023-02-11T10:37:39;101106.34;;;4.69;90.32
59877;BME280;45749;51.140;17.184;2023-02-11T10:40:05;101112.41;;;4.71;90.15
59877;BME280;45749;51.140;17.184;2023-02-11T10:42:30;101103.56;;;4.74;90.28
59877;BME280;45749;51.140;17.184;2023-02-11T10:45:02;101105.19;;;4.78;90.41
59877;BME280;45749;51.140;17.184;2023-02-11T10:47:31;101085.88;;;4.80;90.38
59877;BME280;45749;51.140;17.184;2023-02-11T10:49:58;101086.66;;;4.84;90.57
59877;BME280;45749;51.140;17.184;2023-02-11T10:52:28;101103.09;;;4.87;90.47
59877;BME280;45749;51.140;17.184;2023-02-11T10:55:16;101107.31;;;4.90;90.50
59877;BME280;45749;51.140;17.184;2023-02-11T10:57:41;101088.91;;;4.93;90.83
59877;BME280;45749;51.140;17.184;2023-02-11T11:00:30;101108.88;;;4.96;90.80
59877;BME280;45749;51.140;17.184;2023-02-11T11:02:58;101105.28;;;4.98;90.96
59877;BME280;45749;51.140;17.184;2023-02-11T11:05:28;101102.63;;;5.00;90.70
59877;BME280;45749;51.140;17.184;2023-02-11T11:08:04;101108.72;;;5.00;91.13
59877;BME280;45749;51.140;17.184;2023-02-11T11:10:38;101101.84;;;4.98;90.92
59877;BME280;45749;51.140;17.184;2023-02-11T11:18:35;101112.00;;;5.05;91.00
59877;BME280;45749;51.140;17.184;2023-02-11T11:21:05;101104.97;;;5.07;91.00
59877;BME280;45749;51.140;17.184;2023-02-11T11:23:31;101102.34;;;5.07;90.84
59877;BME280;45749;51.140;17.184;2023-02-11T11:26:00;101110.97;;;5.09;90.97
59877;BME280;45749;51.140;17.184;2023-02-11T11:28:27;101110.09;;;5.10;91.07
59877;BME280;45749;51.140;17.184;2023-02-11T11:30:54;101098.63;;;5.13;91.23
59877;BME280;45749;51.140;17.184;2023-02-11T11:33:25;101109.91;;;5.15;90.96
59877;BME280;45749;51.140;17.184;2023-02-11T11:35:59;101102.78;;;5.18;91.21
59877;BME280;45749;51.140;17.184;2023-02-11T11:38:26;101101.81;;;5.21;91.04
59877;BME280;45749;51.140;17.184;2023-02-11T11:43:36;101093.78;;;5.26;91.24
59877;BME280;45749;51.140;17.184;2023-02-11T11:46:01;101084.97;;;5.28;90.85
59877;BME280;45749;51.140;17.184;2023-02-11T11:48:31;101102.31;;;5.31;91.07
59877;BME280;45749;51.140;17.184;2023-02-11T11:50:59;101102.22;;;5.34;91.23
59877;BME280;45749;51.140;17.184;2023-02-11T11:54:25;101103.91;;;5.35;90.73
59877;BME280;45749;51.140;17.184;2023-02-11T11:58:45;101100.38;;;5.36;90.59
59877;BME280;45749;51.140;17.184;2023-02-11T12:01:29;101089.00;;;5.37;90.76
59877;BME280;45749;51.140;17.184;2023-02-11T12:09:08;101068.97;;;5.36;90.98
59877;BME280;45749;51.140;17.184;2023-02-11T12:14:54;101054.06;;;5.38;91.22
59877;BME280;45749;51.140;17.184;2023-02-11T12:16:59;101063.59;;;5.39;91.04
59877;BME280;45749;51.140;17.184;2023-02-11T12:26:43;101052.13;;;5.43;91.42
59877;BME280;45749;51.140;17.184;2023-02-11T12:29:30;101053.81;;;5.44;91.27
59877;BME280;45749;51.140;17.184;2023-02-11T12:42:32;101012.59;;;5.49;90.97
59877;BME280;45749;51.140;17.184;2023-02-11T12:45:28;101007.44;;;5.48;90.82
59877;BME280;45749;51.140;17.184;2023-02-11T12:55:25;101020.63;;;5.45;90.78
59877;BME280;45749;51.140;17.184;2023-02-11T12:57:52;101013.63;;;5.45;90.75
59877;BME280;45749;51.140;17.184;2023-02-11T13:00:44;101012.72;;;5.46;90.84
59877;BME280;45749;51.140;17.184;2023-02-11T13:03:11;101027.41;;;5.50;90.82
59877;BME280;45749;51.140;17.184;2023-02-11T13:05:45;101023.00;;;5.51;90.84
59877;BME280;45749;51.140;17.184;2023-02-11T13:10:58;101021.13;;;5.54;90.73
59877;BME280;45749;51.140;17.184;2023-02-11T13:13:28;101008.97;;;5.53;90.61
59877;BME280;45749;51.140;17.184;2023-02-11T13:16:02;101015.03;;;5.54;90.60
59877;BME280;45749;51.140;17.184;2023-02-11T13:18:38;101023.75;;;5.54;90.62
59877;BME280;45749;51.140;17.184;2023-02-11T13:23:48;101027.16;;;5.56;90.71
59877;BME280;45749;51.140;17.184;2023-02-11T13:26:26;101023.66;;;5.56;90.58
59877;BME280;45749;51.140;17.184;2023-02-11T13:28:56;101028.91;;;5.56;90.64
59877;BME280;45749;51.140;17.184;2023-02-11T13:31:30;101019.34;;;5.55;90.60
59877;BME280;45749;51.140;17.184;2023-02-11T13:33:56;101018.44;;;5.56;90.59
59877;BME280;45749;51.140;17.184;2023-02-11T13:36:22;101022.78;;;5.57;90.58
59877;BME280;45749;51.140;17.184;2023-02-11T13:38:51;101008.84;;;5.56;90.58
59877;BME280;45749;51.140;17.184;2023-02-11T13:41:50;101010.53;;;5.57;90.54
59877;BME280;45749;51.140;17.184;2023-02-11T13:44:17;101007.97;;;5.56;90.56
59877;BME280;45749;51.140;17.184;2023-02-11T13:49:31;101005.34;;;5.56;90.62
59877;BME280;45749;51.140;17.184;2023-02-11T13:51:58;101005.34;;;5.56;90.59
59877;BME280;45749;51.140;17.184;2023-02-11T13:54:29;101014.06;;;5.56;90.61
59877;BME280;45749;51.140;17.184;2023-02-11T14:00:01;101005.41;;;5.54;90.64
59877;BME280;45749;51.140;17.184;2023-02-11T14:02:29;101009.81;;;5.54;90.88
59877;BME280;45749;51.140;17.184;2023-02-11T14:10:58;101029.09;;;5.51;90.93
59877;BME280;45749;51.140;17.184;2023-02-11T14:13:25;101030.03;;;5.50;91.04
59877;BME280;45749;51.140;17.184;2023-02-11T14:18:35;101048.34;;;5.50;91.35
59877;BME280;45749;51.140;17.184;2023-02-11T14:21:23;101054.47;;;5.49;91.41
59877;BME280;45749;51.140;17.184;2023-02-11T14:23:47;101064.16;;;5.47;91.39
59877;BME280;45749;51.140;17.184;2023-02-11T14:28:47;101066.06;;;5.44;91.98
59877;BME280;45749;51.140;17.184;2023-02-11T14:31:25;101067.94;;;5.40;92.48
59877;BME280;45749;51.140;17.184;2023-02-11T14:39:12;101075.84;;;5.38;92.71
59877;BME280;45749;51.140;17.184;2023-02-11T14:41:42;101074.19;;;5.36;93.37
59877;BME280;45749;51.140;17.184;2023-02-11T14:44:24;101089.97;;;5.34;93.14
59877;BME280;45749;51.140;17.184;2023-02-11T14:46:51;101086.53;;;5.32;93.09
59877;BME280;45749;51.140;17.184;2023-02-11T14:49:25;101087.53;;;5.30;93.73
59877;BME280;45749;51.140;17.184;2023-02-11T14:51:52;101094.59;;;5.28;94.37
59877;BME280;45749;51.140;17.184;2023-02-11T14:54:19;101084.25;;;5.25;95.08
59877;BME280;45749;51.140;17.184;2023-02-11T14:57:03;101091.28;;;5.23;94.60
59877;BME280;45749;51.140;17.184;2023-02-11T14:59:29;101081.00;;;5.18;95.27
59877;BME280;45749;51.140;17.184;2023-02-11T15:01:54;101083.81;;;5.13;95.35
59877;BME280;45749;51.140;17.184;2023-02-11T15:06:51;101085.72;;;5.08;95.72
59877;BME280;45749;51.140;17.184;2023-02-11T15:09:18;101086.69;;;5.06;95.67